sensor_id;sensor_type;location;lat;lon;timestamp;temperature;humidity
6008;DHT22;3032;49.484;11.112;2022-11-20T00:00:29;3.50;99.90
6008;DHT22;3032;49.484;11.112;2022-11-20T00:02:54;3.40;99.90
6008;DHT22;3032;49.484;11.112;2022-11-20T00:05:20;3.40;99.90
6008;DHT22;3032;49.484;11.112;2022-11-20T00:07:46;3.00;99.90
6008;DHT22;3032;49.484;11.112;2022-11-20T00:10:12;3.10;99.90
6008;DHT22;3032;49.484;11.112;2022-11-20T00:12:38;3.30;99.90
6008;DHT22;3032;49.484;11.112;2022-11-20T00:15:04;3.20;99.90
6008;DHT22;3032;49.484;11.112;2022-11-20T00:17:29;2.90;99.90
6008;DHT22;3032;49.484;11.112;2022-11-20T00:19:55;2.60;99.90
6008;DHT22;3032;49.484;11.112;2022-11-20T00:22:21;2.40;99.90
6008;DHT22;3032;49.484;11.112;2022-11-20T00:24:46;2.50;99.90
6008;DHT22;3032;49.484;11.112;2022-11-20T00:27:12;2.50;99.90
6008;DHT22;3032;49.484;11.112;2022-11-20T00:29:37;2.70;99.90
6008;DHT22;3032;49.484;11.112;2022-11-20T00:32:03;2.90;99.90
6008;DHT22;3032;49.484;11.112;2022-11-20T00:34:29;3.00;99.90
6008;DHT22;3032;49.484;11.112;2022-11-20T00:36:54;3.10;99.90
6008;DHT22;3032;49.484;11.112;2022-11-20T00:39:20;2.80;99.90
6008;DHT22;3032;49.484;11.112;2022-11-20T00:41:45;2.50;99.90
6008;DHT22;3032;49.484;11.112;2022-11-20T00:44:11;2.70;99.90
6008;DHT22;3032;49.484;11.112;2022-11-20T00:46:36;3.00;99.90
6008;DHT22;3032;49.484;11.112;2022-11-20T00:49:02;3.40;99.90
6008;DHT22;3032;49.484;11.112;2022-11-20T00:51:28;3.20;99.90
6008;DHT22;3032;49.484;11.112;2022-11-20T00:53:57;3.20;99.90
6008;DHT22;3032;49.484;11.112;2022-11-20T00:56:24;3.50;99.90
6008;DHT22;3032;49.484;11.112;2022-11-20T00:58:50;3.80;99.90
6008;DHT22;3032;49.484;11.112;2022-11-20T01:01:24;3.90;99.90
6008;DHT22;3032;49.484;11.112;2022-11-20T01:03:52;3.30;99.90
6008;DHT22;3032;49.484;11.112;2022-11-20T01:06:27;3.00;99.90
6008;DHT22;3032;49.484;11.112;2022-11-20T01:08:55;3.00;99.90
6008;DHT22;3032;49.484;11.112;2022-11-20T01:11:33;3.40;99.90
6008;DHT22;3032;49.484;11.112;2022-11-20T01:14:00;3.40;99.90
6008;DHT22;3032;49.484;11.112;2022-11-20T01:16:35;3.50;99.90
6008;DHT22;3032;49.484;11.112;2022-11-20T01:19:03;3.60;99.90
6008;DHT22;3032;49.484;11.112;2022-11-20T01:21:34;3.60;99.90
6008;DHT22;3032;49.484;11.112;2022-11-20T01:24:01;3.90;99.90
6008;DHT22;3032;49.484;11.112;2022-11-20T01:26:29;3.90;99.90
6008;DHT22;3032;49.484;11.112;2022-11-20T01:28:55;3.70;99.90
6008;DHT22;3032;49.484;11.112;2022-11-20T01:33:50;3.80;99.90
6008;DHT22;3032;49.484;11.112;2022-11-20T01:36:18;4.00;99.90
6008;DHT22;3032;49.484;11.112;2022-11-20T01:38:44;3.80;99.90
6008;DHT22;3032;49.484;11.112;2022-11-20T01:41:12;3.30;99.90
6008;DHT22;3032;49.484;11.112;2022-11-20T01:43:58;3.00;99.90
6008;DHT22;3032;49.484;11.112;2022-11-20T01:46:24;3.30;99.90
6008;DHT22;3032;49.484;11.112;2022-11-20T01:49:16;3.20;99.90
6008;DHT22;3032;49.484;11.112;2022-11-20T01:51:47;3.50;99.90
6008;DHT22;3032;49.484;11.112;2022-11-20T01:54:19;3.70;99.90
6008;DHT22;3032;49.484;11.112;2022-11-20T01:56:48;4.00;99.90
6008;DHT22;3032;49.484;11.112;2022-11-20T01:59:17;4.30;99.90
6008;DHT22;3032;49.484;11.112;2022-11-20T02:01:44;4.40;99.90
6008;DHT22;3032;49.484;11.112;2022-11-20T02:04:10;4.40;99.90
6008;DHT22;3032;49.484;11.112;2022-11-20T02:06:49;4.50;99.90
6008;DHT22;3032;49.484;11.112;2022-11-20T02:09:17;4.30;99.90
6008;DHT22;3032;49.484;11.112;2022-11-20T02:11:42;4.40;99.90
6008;DHT22;3032;49.484;11.112;2022-11-20T02:14:08;4.60;99.90
6008;DHT22;3032;49.484;11.112;2022-11-20T02:16:37;4.60;99.90
6008;DHT22;3032;49.484;11.112;2022-11-20T02:19:09;4.40;99.90
6008;DHT22;3032;49.484;11.112;2022-11-20T02:21:46;4.40;99.90
6008;DHT22;3032;49.484;11.112;2022-11-20T02:24:19;4.40;99.90
6008;DHT22;3032;49.484;11.112;2022-11-20T02:27:09;4.40;99.90
6008;DHT22;3032;49.484;11.112;2022-11-20T02:29:50;4.60;99.90
6008;DHT22;3032;49.484;11.112;2022-11-20T02:32:32;4.70;99.90
6008;DHT22;3032;49.484;11.112;2022-11-20T02:34:58;4.80;99.90
6008;DHT22;3032;49.484;11.112;2022-11-20T02:37:34;4.80;99.90
6008;DHT22;3032;49.484;11.112;2022-11-20T02:40:01;4.90;99.90
6008;DHT22;3032;49.484;11.112;2022-11-20T02:42:27;5.00;99.90
6008;DHT22;3032;49.484;11.112;2022-11-20T02:44:52;5.00;99.90
6008;DHT22;3032;49.484;11.112;2022-11-20T02:47:18;4.80;99.90
6008;DHT22;3032;49.484;11.112;2022-11-20T02:49:43;4.70;99.90
6008;DHT22;3032;49.484;11.112;2022-11-20T02:52:09;4.60;99.90
6008;DHT22;3032;49.484;11.112;2022-11-20T02:54:35;4.60;99.90
6008;DHT22;3032;49.484;11.112;2022-11-20T02:57:00;4.50;99.90
6008;DHT22;3032;49.484;11.112;2022-11-20T02:59:26;4.50;99.90
6008;DHT22;3032;49.484;11.112;2022-11-20T03:01:51;4.40;99.90
6008;DHT22;3032;49.484;11.112;2022-11-20T03:04:17;4.40;99.90
6008;DHT22;3032;49.484;11.112;2022-11-20T03:06:42;4.40;99.90
6008;DHT22;3032;49.484;11.112;2022-11-20T03:09:08;4.30;99.90
6008;DHT22;3032;49.484;11.112;2022-11-20T03:11:34;4.30;99.90
6008;DHT22;3032;49.484;11.112;2022-11-20T03:14:04;4.50;99.90
6008;DHT22;3032;49.484;11.112;2022-11-20T03:16:31;4.50;99.90
6008;DHT22;3032;49.484;11.112;2022-11-20T03:18:56;4.40;99.90
6008;DHT22;3032;49.484;11.112;2022-11-20T03:21:22;4.30;99.90
6008;DHT22;3032;49.484;11.112;2022-11-20T03:23:48;4.30;99.90
6008;DHT22;3032;49.484;11.112;2022-11-20T03:26:16;4.40;99.90
6008;DHT22;3032;49.484;11.112;2022-11-20T03:28:47;4.40;99.90
6008;DHT22;3032;49.484;11.112;2022-11-20T03:31:15;4.20;99.90
6008;DHT22;3032;49.484;11.112;2022-11-20T03:33:41;4.10;99.90
6008;DHT22;3032;49.484;11.112;2022-11-20T03:36:09;4.00;99.90
6008;DHT22;3032;49.484;11.112;2022-11-20T03:38:36;3.70;99.90
6008;DHT22;3032;49.484;11.112;2022-11-20T03:41:11;3.70;99.90
6008;DHT22;3032;49.484;11.112;2022-11-20T03:43:37;4.30;99.90
6008;DHT22;3032;49.484;11.112;2022-11-20T03:46:03;3.40;99.90
6008;DHT22;3032;49.484;11.112;2022-11-20T03:48:29;3.50;99.90
6008;DHT22;3032;49.484;11.112;2022-11-20T03:51:13;3.40;99.90
6008;DHT22;3032;49.484;11.112;2022-11-20T03:53:40;3.40;99.90
6008;DHT22;3032;49.484;11.112;2022-11-20T03:56:07;3.30;99.90
6008;DHT22;3032;49.484;11.112;2022-11-20T03:58:35;3.40;99.90
6008;DHT22;3032;49.484;11.112;2022-11-20T04:01:16;3.60;99.90
6008;DHT22;3032;49.484;11.112;2022-11-20T04:03:43;3.90;99.90
6008;DHT22;3032;49.484;11.112;2022-11-20T04:06:13;4.00;99.90
6008;DHT22;3032;49.484;11.112;2022-11-20T04:08:40;3.80;99.90
6008;DHT22;3032;49.484;11.112;2022-11-20T04:11:20;3.30;99.90
6008;DHT22;3032;49.484;11.112;2022-11-20T04:13:54;2.50;99.90
6008;DHT22;3032;49.484;11.112;2022-11-20T04:16:20;2.40;99.90
6008;DHT22;3032;49.484;11.112;2022-11-20T04:18:47;2.60;99.90
6008;DHT22;3032;49.484;11.112;2022-11-20T04:21:12;2.70;99.90
6008;DHT22;3032;49.484;11.112;2022-11-20T04:23:38;2.80;99.90
6008;DHT22;3032;49.484;11.112;2022-11-20T04:26:06;3.00;99.90
6008;DHT22;3032;49.484;11.112;2022-11-20T04:28:32;3.10;99.90
6008;DHT22;3032;49.484;11.112;2022-11-20T04:31:08;2.90;99.90
6008;DHT22;3032;49.484;11.112;2022-11-20T04:33:34;3.10;99.90
6008;DHT22;3032;49.484;11.112;2022-11-20T04:38:34;3.00;99.90
6008;DHT22;3032;49.484;11.112;2022-11-20T04:41:01;3.00;99.90
6008;DHT22;3032;49.484;11.112;2022-11-20T04:43:27;3.00;99.90
6008;DHT22;3032;49.484;11.112;2022-11-20T04:45:57;3.10;99.90
6008;DHT22;3032;49.484;11.112;2022-11-20T04:48:23;3.20;99.90
6008;DHT22;3032;49.484;11.112;2022-11-20T04:50:49;2.80;99.90
6008;DHT22;3032;49.484;11.112;2022-11-20T04:53:14;2.70;99.90
6008;DHT22;3032;49.484;11.112;2022-11-20T04:55:40;2.80;99.90
6008;DHT22;3032;49.484;11.112;2022-11-20T04:58:06;3.00;99.90
6008;DHT22;3032;49.484;11.112;2022-11-20T05:00:32;3.20;99.90
6008;DHT22;3032;49.484;11.112;2022-11-20T05:02:57;3.30;99.90
6008;DHT22;3032;49.484;11.112;2022-11-20T05:05:23;3.40;99.90
6008;DHT22;3032;49.484;11.112;2022-11-20T05:07:49;3.40;99.90
6008;DHT22;3032;49.484;11.112;2022-11-20T05:10:14;3.30;99.90
6008;DHT22;3032;49.484;11.112;2022-11-20T05:12:40;3.50;99.90
6008;DHT22;3032;49.484;11.112;2022-11-20T05:15:06;3.70;99.90
6008;DHT22;3032;49.484;11.112;2022-11-20T05:17:32;3.80;99.90
6008;DHT22;3032;49.484;11.112;2022-11-20T05:19:57;3.50;99.90
6008;DHT22;3032;49.484;11.112;2022-11-20T05:22:23;3.50;99.90
6008;DHT22;3032;49.484;11.112;2022-11-20T05:24:49;3.70;99.90
6008;DHT22;3032;49.484;11.112;2022-11-20T05:27:14;4.00;99.90
6008;DHT22;3032;49.484;11.112;2022-11-20T05:29:40;4.20;99.90
6008;DHT22;3032;49.484;11.112;2022-11-20T05:32:05;4.40;99.90
6008;DHT22;3032;49.484;11.112;2022-11-20T05:34:34;4.40;99.90
6008;DHT22;3032;49.484;11.112;2022-11-20T05:36:59;4.40;99.90
6008;DHT22;3032;49.484;11.112;2022-11-20T05:39:25;4.40;99.90
6008;DHT22;3032;49.484;11.112;2022-11-20T05:41:50;4.60;99.90
6008;DHT22;3032;49.484;11.112;2022-11-20T05:44:36;4.70;99.90
6008;DHT22;3032;49.484;11.112;2022-11-20T05:47:01;4.70;99.90
6008;DHT22;3032;49.484;11.112;2022-11-20T05:49:27;4.70;99.90
6008;DHT22;3032;49.484;11.112;2022-11-20T05:51:53;4.50;99.90
6008;DHT22;3032;49.484;11.112;2022-11-20T05:54:18;4.50;99.90
6008;DHT22;3032;49.484;11.112;2022-11-20T05:56:44;4.60;99.90
6008;DHT22;3032;49.484;11.112;2022-11-20T05:59:09;4.40;99.90
6008;DHT22;3032;49.484;11.112;2022-11-20T06:01:35;4.40;99.90
6008;DHT22;3032;49.484;11.112;2022-11-20T06:04:01;4.50;99.90
6008;DHT22;3032;49.484;11.112;2022-11-20T06:06:27;4.60;99.90
6008;DHT22;3032;49.484;11.112;2022-11-20T06:08:53;4.70;99.90
6008;DHT22;3032;49.484;11.112;2022-11-20T06:11:19;4.70;99.90
6008;DHT22;3032;49.484;11.112;2022-11-20T06:13:45;4.40;99.90
6008;DHT22;3032;49.484;11.112;2022-11-20T06:16:14;4.10;99.90
6008;DHT22;3032;49.484;11.112;2022-11-20T06:18:40;4.10;99.90
6008;DHT22;3032;49.484;11.112;2022-11-20T06:21:08;4.20;99.90
6008;DHT22;3032;49.484;11.112;2022-11-20T06:23:35;4.30;99.90
6008;DHT22;3032;49.484;11.112;2022-11-20T06:26:02;4.30;99.90
6008;DHT22;3032;49.484;11.112;2022-11-20T06:28:28;4.20;99.90
6008;DHT22;3032;49.484;11.112;2022-11-20T06:30:54;4.40;99.90
6008;DHT22;3032;49.484;11.112;2022-11-20T06:33:19;4.40;99.90
6008;DHT22;3032;49.484;11.112;2022-11-20T06:35:45;4.40;99.90
6008;DHT22;3032;49.484;11.112;2022-11-20T06:38:10;4.50;99.90
6008;DHT22;3032;49.484;11.112;2022-11-20T06:40:36;4.30;99.90
6008;DHT22;3032;49.484;11.112;2022-11-20T06:43:04;4.40;99.90
6008;DHT22;3032;49.484;11.112;2022-11-20T06:45:30;4.50;99.90
6008;DHT22;3032;49.484;11.112;2022-11-20T06:47:57;4.20;99.90
6008;DHT22;3032;49.484;11.112;2022-11-20T06:50:23;4.30;99.90
6008;DHT22;3032;49.484;11.112;2022-11-20T06:52:48;4.20;99.90
6008;DHT22;3032;49.484;11.112;2022-11-20T06:55:14;4.40;99.90
6008;DHT22;3032;49.484;11.112;2022-11-20T06:57:39;4.70;99.90
6008;DHT22;3032;49.484;11.112;2022-11-20T07:00:05;4.90;99.90
6008;DHT22;3032;49.484;11.112;2022-11-20T07:02:31;5.10;99.90
6008;DHT22;3032;49.484;11.112;2022-11-20T07:04:57;5.20;99.90
6008;DHT22;3032;49.484;11.112;2022-11-20T07:07:22;5.00;99.90
6008;DHT22;3032;49.484;11.112;2022-11-20T07:09:48;5.10;99.90
6008;DHT22;3032;49.484;11.112;2022-11-20T07:12:13;5.20;99.90
6008;DHT22;3032;49.484;11.112;2022-11-20T07:14:39;5.00;99.90
6008;DHT22;3032;49.484;11.112;2022-11-20T07:17:05;4.80;99.90
6008;DHT22;3032;49.484;11.112;2022-11-20T07:19:30;4.70;99.90
6008;DHT22;3032;49.484;11.112;2022-11-20T07:21:56;4.70;99.90
6008;DHT22;3032;49.484;11.112;2022-11-20T07:24:21;4.60;99.90
6008;DHT22;3032;49.484;11.112;2022-11-20T07:26:47;4.70;99.90
6008;DHT22;3032;49.484;11.112;2022-11-20T07:29:14;4.90;99.90
6008;DHT22;3032;49.484;11.112;2022-11-20T07:31:41;5.10;99.90
6008;DHT22;3032;49.484;11.112;2022-11-20T07:34:07;5.20;99.90
6008;DHT22;3032;49.484;11.112;2022-11-20T07:36:32;5.30;99.90
6008;DHT22;3032;49.484;11.112;2022-11-20T07:38:58;5.30;99.90
6008;DHT22;3032;49.484;11.112;2022-11-20T07:41:23;5.40;99.90
6008;DHT22;3032;49.484;11.112;2022-11-20T07:43:49;5.50;99.90
6008;DHT22;3032;49.484;11.112;2022-11-20T07:46:14;5.40;99.90
6008;DHT22;3032;49.484;11.112;2022-11-20T07:48:40;5.20;99.90
6008;DHT22;3032;49.484;11.112;2022-11-20T07:51:05;5.30;99.90
6008;DHT22;3032;49.484;11.112;2022-11-20T07:53:31;5.50;99.90
6008;DHT22;3032;49.484;11.112;2022-11-20T07:56:00;5.60;99.90
6008;DHT22;3032;49.484;11.112;2022-11-20T07:58:27;5.60;99.90
6008;DHT22;3032;49.484;11.112;2022-11-20T08:00:54;5.70;99.90
6008;DHT22;3032;49.484;11.112;2022-11-20T08:03:19;5.80;99.90
6008;DHT22;3032;49.484;11.112;2022-11-20T08:05:45;5.50;99.90
6008;DHT22;3032;49.484;11.112;2022-11-20T08:08:10;5.20;99.90
6008;DHT22;3032;49.484;11.112;2022-11-20T08:10:36;5.40;99.90
6008;DHT22;3032;49.484;11.112;2022-11-20T08:13:02;5.50;99.90
6008;DHT22;3032;49.484;11.112;2022-11-20T08:15:50;5.70;99.90
6008;DHT22;3032;49.484;11.112;2022-11-20T08:18:16;5.70;99.90
6008;DHT22;3032;49.484;11.112;2022-11-20T08:20:42;5.70;99.90
6008;DHT22;3032;49.484;11.112;2022-11-20T08:23:08;5.60;99.90
6008;DHT22;3032;49.484;11.112;2022-11-20T08:25:35;5.60;99.90
6008;DHT22;3032;49.484;11.112;2022-11-20T08:28:04;5.60;99.90
6008;DHT22;3032;49.484;11.112;2022-11-20T08:30:30;5.70;99.90
6008;DHT22;3032;49.484;11.112;2022-11-20T08:33:07;5.90;99.90
6008;DHT22;3032;49.484;11.112;2022-11-20T08:35:35;6.10;99.90
6008;DHT22;3032;49.484;11.112;2022-11-20T08:38:02;6.00;99.90
6008;DHT22;3032;49.484;11.112;2022-11-20T08:40:28;6.10;99.90
6008;DHT22;3032;49.484;11.112;2022-11-20T08:42:53;6.20;99.90
6008;DHT22;3032;49.484;11.112;2022-11-20T08:45:20;6.10;99.90
6008;DHT22;3032;49.484;11.112;2022-11-20T08:47:45;6.10;99.90
6008;DHT22;3032;49.484;11.112;2022-11-20T08:50:13;5.90;99.90
6008;DHT22;3032;49.484;11.112;2022-11-20T08:52:39;5.90;99.90
6008;DHT22;3032;49.484;11.112;2022-11-20T08:55:05;5.60;99.90
6008;DHT22;3032;49.484;11.112;2022-11-20T08:57:35;5.30;99.90
6008;DHT22;3032;49.484;11.112;2022-11-20T09:00:02;5.30;99.90
6008;DHT22;3032;49.484;11.112;2022-11-20T09:02:28;5.40;99.90
6008;DHT22;3032;49.484;11.112;2022-11-20T09:04:54;5.40;99.90
6008;DHT22;3032;49.484;11.112;2022-11-20T09:07:20;5.40;99.90
6008;DHT22;3032;49.484;11.112;2022-11-20T09:09:46;5.60;99.90
6008;DHT22;3032;49.484;11.112;2022-11-20T09:12:11;5.60;99.90
6008;DHT22;3032;49.484;11.112;2022-11-20T09:14:37;5.70;99.90
6008;DHT22;3032;49.484;11.112;2022-11-20T09:17:02;5.50;99.90
6008;DHT22;3032;49.484;11.112;2022-11-20T09:19:28;5.40;99.90
6008;DHT22;3032;49.484;11.112;2022-11-20T09:21:53;5.40;99.90
6008;DHT22;3032;49.484;11.112;2022-11-20T09:24:19;5.30;99.90
6008;DHT22;3032;49.484;11.112;2022-11-20T09:26:46;5.30;99.90
6008;DHT22;3032;49.484;11.112;2022-11-20T09:29:11;5.20;99.90
6008;DHT22;3032;49.484;11.112;2022-11-20T09:31:37;5.30;99.90
6008;DHT22;3032;49.484;11.112;2022-11-20T09:34:03;5.20;99.90
6008;DHT22;3032;49.484;11.112;2022-11-20T09:36:28;5.30;99.90
6008;DHT22;3032;49.484;11.112;2022-11-20T09:38:54;5.50;99.90
6008;DHT22;3032;49.484;11.112;2022-11-20T09:41:55;5.80;99.90
6008;DHT22;3032;49.484;11.112;2022-11-20T09:47:34;5.70;99.90
6008;DHT22;3032;49.484;11.112;2022-11-20T09:50:23;5.80;99.90
6008;DHT22;3032;49.484;11.112;2022-11-20T09:53:11;5.90;99.90
6008;DHT22;3032;49.484;11.112;2022-11-20T09:55:37;6.00;99.90
6008;DHT22;3032;49.484;11.112;2022-11-20T09:58:07;6.10;99.90
6008;DHT22;3032;49.484;11.112;2022-11-20T10:00:35;6.40;99.90
6008;DHT22;3032;49.484;11.112;2022-11-20T10:03:13;6.50;99.90
6008;DHT22;3032;49.484;11.112;2022-11-20T10:05:52;6.50;99.90
6008;DHT22;3032;49.484;11.112;2022-11-20T10:08:25;6.40;99.90
6008;DHT22;3032;49.484;11.112;2022-11-20T10:14:21;6.20;99.90
6008;DHT22;3032;49.484;11.112;2022-11-20T10:16:47;6.30;99.90
6008;DHT22;3032;49.484;11.112;2022-11-20T10:19:41;6.30;99.90
6008;DHT22;3032;49.484;11.112;2022-11-20T10:24:55;6.30;99.90
6008;DHT22;3032;49.484;11.112;2022-11-20T10:28:10;6.10;99.90
6008;DHT22;3032;49.484;11.112;2022-11-20T10:30:16;6.00;99.90
6008;DHT22;3032;49.484;11.112;2022-11-20T10:32:48;6.00;99.90
6008;DHT22;3032;49.484;11.112;2022-11-20T10:35:23;5.90;99.90
6008;DHT22;3032;49.484;11.112;2022-11-20T10:37:59;5.40;99.90
6008;DHT22;3032;49.484;11.112;2022-11-20T10:40:47;5.50;99.90
6008;DHT22;3032;49.484;11.112;2022-11-20T10:43:35;5.20;99.90
6008;DHT22;3032;49.484;11.112;2022-11-20T10:46:09;5.20;99.90
6008;DHT22;3032;49.484;11.112;2022-11-20T10:48:38;5.40;99.90
6008;DHT22;3032;49.484;11.112;2022-11-20T10:51:40;5.60;99.90
6008;DHT22;3032;49.484;11.112;2022-11-20T11:01:41;6.60;99.90
6008;DHT22;3032;49.484;11.112;2022-11-20T11:04:30;6.60;99.90
6008;DHT22;3032;49.484;11.112;2022-11-20T11:07:36;6.00;99.90
6008;DHT22;3032;49.484;11.112;2022-11-20T11:10:18;6.00;99.90
6008;DHT22;3032;49.484;11.112;2022-11-20T11:12:47;6.20;99.90
6008;DHT22;3032;49.484;11.112;2022-11-20T11:15:37;6.40;99.90
6008;DHT22;3032;49.484;11.112;2022-11-20T11:18:03;6.70;99.90
6008;DHT22;3032;49.484;11.112;2022-11-20T11:20:29;6.90;99.90
6008;DHT22;3032;49.484;11.112;2022-11-20T11:22:57;7.00;99.90
6008;DHT22;3032;49.484;11.112;2022-11-20T11:25:29;7.10;99.90
6008;DHT22;3032;49.484;11.112;2022-11-20T11:27:58;7.00;99.90
6008;DHT22;3032;49.484;11.112;2022-11-20T11:30:26;6.70;99.90
6008;DHT22;3032;49.484;11.112;2022-11-20T11:33:05;6.40;99.90
6008;DHT22;3032;49.484;11.112;2022-11-20T11:36:39;6.20;99.90
6008;DHT22;3032;49.484;11.112;2022-11-20T11:39:11;6.10;99.90
6008;DHT22;3032;49.484;11.112;2022-11-20T11:41:38;6.30;99.90
6008;DHT22;3032;49.484;11.112;2022-11-20T11:47:04;6.50;99.90
6008;DHT22;3032;49.484;11.112;2022-11-20T11:49:30;6.80;99.90
6008;DHT22;3032;49.484;11.112;2022-11-20T11:52:08;7.00;99.90
6008;DHT22;3032;49.484;11.112;2022-11-20T11:55:01;7.30;99.90
6008;DHT22;3032;49.484;11.112;2022-11-20T12:00:09;7.60;99.90
6008;DHT22;3032;49.484;11.112;2022-11-20T12:08:15;7.80;99.90
6008;DHT22;3032;49.484;11.112;2022-11-20T12:16:01;8.40;99.90
6008;DHT22;3032;49.484;11.112;2022-11-20T12:18:28;8.40;99.90
6008;DHT22;3032;49.484;11.112;2022-11-20T12:21:39;8.50;99.90
6008;DHT22;3032;49.484;11.112;2022-11-20T12:24:21;8.50;99.90
6008;DHT22;3032;49.484;11.112;2022-11-20T12:29:53;7.90;99.90
6008;DHT22;3032;49.484;11.112;2022-11-20T12:37:52;7.70;99.90
6008;DHT22;3032;49.484;11.112;2022-11-20T12:40:54;8.30;99.90
6008;DHT22;3032;49.484;11.112;2022-11-20T12:43:24;7.90;99.90
6008;DHT22;3032;49.484;11.112;2022-11-20T13:03:04;8.20;99.90
6008;DHT22;3032;49.484;11.112;2022-11-20T13:05:58;8.20;99.90
6008;DHT22;3032;49.484;11.112;2022-11-20T13:08:28;8.20;99.90
6008;DHT22;3032;49.484;11.112;2022-11-20T13:10:57;7.90;99.90
6008;DHT22;3032;49.484;11.112;2022-11-20T13:18:53;7.70;99.90
6008;DHT22;3032;49.484;11.112;2022-11-20T13:21:22;7.80;99.90
6008;DHT22;3032;49.484;11.112;2022-11-20T13:23:48;7.90;99.90
6008;DHT22;3032;49.484;11.112;2022-11-20T13:26:22;8.50;99.90
6008;DHT22;3032;49.484;11.112;2022-11-20T13:29:16;8.00;99.90
6008;DHT22;3032;49.484;11.112;2022-11-20T13:31:48;8.00;99.90
6008;DHT22;3032;49.484;11.112;2022-11-20T13:34:23;7.80;99.90
6008;DHT22;3032;49.484;11.112;2022-11-20T13:36:57;7.70;99.90
6008;DHT22;3032;49.484;11.112;2022-11-20T13:39:25;8.40;99.90
6008;DHT22;3032;49.484;11.112;2022-11-20T13:41:56;7.70;99.90
6008;DHT22;3032;49.484;11.112;2022-11-20T13:44:38;7.60;99.90
6008;DHT22;3032;49.484;11.112;2022-11-20T13:47:26;7.50;99.90
6008;DHT22;3032;49.484;11.112;2022-11-20T13:49:54;7.50;99.90
6008;DHT22;3032;49.484;11.112;2022-11-20T13:55:49;7.70;99.90
6008;DHT22;3032;49.484;11.112;2022-11-20T14:01:10;7.60;99.90
6008;DHT22;3032;49.484;11.112;2022-11-20T14:03:36;7.50;99.90
6008;DHT22;3032;49.484;11.112;2022-11-20T14:06:05;7.40;99.90
6008;DHT22;3032;49.484;11.112;2022-11-20T14:08:42;7.30;99.90
6008;DHT22;3032;49.484;11.112;2022-11-20T14:11:18;7.20;99.90
6008;DHT22;3032;49.484;11.112;2022-11-20T14:16:34;7.10;99.90
6008;DHT22;3032;49.484;11.112;2022-11-20T14:24:34;7.20;99.90
6008;DHT22;3032;49.484;11.112;2022-11-20T14:27:00;7.30;99.90
6008;DHT22;3032;49.484;11.112;2022-11-20T14:29:33;7.30;99.90
6008;DHT22;3032;49.484;11.112;2022-11-20T14:32:01;7.40;99.90
6008;DHT22;3032;49.484;11.112;2022-11-20T14:34:32;7.60;99.90
6008;DHT22;3032;49.484;11.112;2022-11-20T14:37:02;7.60;99.90
6008;DHT22;3032;49.484;11.112;2022-11-20T14:39:42;7.70;99.90
6008;DHT22;3032;49.484;11.112;2022-11-20T14:42:16;7.60;99.90
6008;DHT22;3032;49.484;11.112;2022-11-20T14:44:42;7.70;99.90
6008;DHT22;3032;49.484;11.112;2022-11-20T14:47:15;7.70;99.90
6008;DHT22;3032;49.484;11.112;2022-11-20T14:49:43;7.60;99.90
6008;DHT22;3032;49.484;11.112;2022-11-20T14:52:15;7.60;99.90
6008;DHT22;3032;49.484;11.112;2022-11-20T14:57:33;7.60;99.90
6008;DHT22;3032;49.484;11.112;2022-11-20T15:02:44;7.60;99.90
6008;DHT22;3032;49.484;11.112;2022-11-20T15:05:10;7.60;99.90
6008;DHT22;3032;49.484;11.112;2022-11-20T15:07:41;7.60;99.90
6008;DHT22;3032;49.484;11.112;2022-11-20T15:15:23;7.60;99.90
6008;DHT22;3032;49.484;11.112;2022-11-20T15:17:50;7.50;99.90
6008;DHT22;3032;49.484;11.112;2022-11-20T15:20:16;8.10;99.90
6008;DHT22;3032;49.484;11.112;2022-11-20T15:22:42;7.10;99.90
6008;DHT22;3032;49.484;11.112;2022-11-20T15:25:18;6.90;99.90
6008;DHT22;3032;49.484;11.112;2022-11-20T15:27:44;7.10;99.90
6008;DHT22;3032;49.484;11.112;2022-11-20T15:30:16;7.30;99.90
6008;DHT22;3032;49.484;11.112;2022-11-20T15:32:42;7.40;99.90
6008;DHT22;3032;49.484;11.112;2022-11-20T15:35:09;7.50;99.90
6008;DHT22;3032;49.484;11.112;2022-11-20T15:37:35;7.50;99.90
6008;DHT22;3032;49.484;11.112;2022-11-20T15:40:01;7.50;99.90
6008;DHT22;3032;49.484;11.112;2022-11-20T15:42:27;7.50;99.90
6008;DHT22;3032;49.484;11.112;2022-11-20T15:44:52;7.50;99.90
6008;DHT22;3032;49.484;11.112;2022-11-20T15:47:19;7.50;99.90
6008;DHT22;3032;49.484;11.112;2022-11-20T15:49:46;7.50;99.90
6008;DHT22;3032;49.484;11.112;2022-11-20T15:52:12;7.50;99.90
6008;DHT22;3032;49.484;11.112;2022-11-20T15:54:38;7.50;99.90
6008;DHT22;3032;49.484;11.112;2022-11-20T15:57:04;7.60;99.90
6008;DHT22;3032;49.484;11.112;2022-11-20T15:59:29;7.70;99.90
6008;DHT22;3032;49.484;11.112;2022-11-20T16:01:55;7.70;99.90
6008;DHT22;3032;49.484;11.112;2022-11-20T16:04:20;8.20;99.90
6008;DHT22;3032;49.484;11.112;2022-11-20T16:06:46;7.40;99.90
6008;DHT22;3032;49.484;11.112;2022-11-20T16:09:11;7.50;99.90
6008;DHT22;3032;49.484;11.112;2022-11-20T16:11:37;7.20;99.90
6008;DHT22;3032;49.484;11.112;2022-11-20T16:14:03;6.70;99.90
6008;DHT22;3032;49.484;11.112;2022-11-20T16:16:48;6.70;99.90
6008;DHT22;3032;49.484;11.112;2022-11-20T16:19:14;6.80;99.90
6008;DHT22;3032;49.484;11.112;2022-11-20T16:21:41;6.90;99.90
6008;DHT22;3032;49.484;11.112;2022-11-20T16:24:08;7.10;99.90
6008;DHT22;3032;49.484;11.112;2022-11-20T16:26:35;7.20;99.90
6008;DHT22;3032;49.484;11.112;2022-11-20T16:29:01;7.20;99.90
6008;DHT22;3032;49.484;11.112;2022-11-20T16:31:28;7.90;99.90
6008;DHT22;3032;49.484;11.112;2022-11-20T16:33:59;7.70;99.90
6008;DHT22;3032;49.484;11.112;2022-11-20T16:36:26;6.60;99.90
6008;DHT22;3032;49.484;11.112;2022-11-20T16:39:00;6.80;99.90
6008;DHT22;3032;49.484;11.112;2022-11-20T16:41:27;6.70;99.90
6008;DHT22;3032;49.484;11.112;2022-11-20T16:43:55;7.00;99.90
6008;DHT22;3032;49.484;11.112;2022-11-20T16:46:25;6.40;99.90
6008;DHT22;3032;49.484;11.112;2022-11-20T16:49:03;5.90;99.90
6008;DHT22;3032;49.484;11.112;2022-11-20T16:51:30;6.20;99.90
6008;DHT22;3032;49.484;11.112;2022-11-20T16:53:57;7.00;99.90
6008;DHT22;3032;49.484;11.112;2022-11-20T16:56:24;6.40;99.90
6008;DHT22;3032;49.484;11.112;2022-11-20T16:58:52;5.80;99.90
6008;DHT22;3032;49.484;11.112;2022-11-20T17:01:19;5.90;99.90
6008;DHT22;3032;49.484;11.112;2022-11-20T17:03:46;6.10;99.90
6008;DHT22;3032;49.484;11.112;2022-11-20T17:06:17;6.00;99.90
6008;DHT22;3032;49.484;11.112;2022-11-20T17:08:44;5.70;99.90
6008;DHT22;3032;49.484;11.112;2022-11-20T17:11:11;5.20;99.90
6008;DHT22;3032;49.484;11.112;2022-11-20T17:13:37;5.50;99.90
6008;DHT22;3032;49.484;11.112;2022-11-20T17:16:08;5.90;99.90
6008;DHT22;3032;49.484;11.112;2022-11-20T17:18:34;6.30;99.90
6008;DHT22;3032;49.484;11.112;2022-11-20T17:21:01;6.60;99.90
6008;DHT22;3032;49.484;11.112;2022-11-20T17:23:35;6.70;99.90
6008;DHT22;3032;49.484;11.112;2022-11-20T17:26:21;7.00;99.90
6008;DHT22;3032;49.484;11.112;2022-11-20T17:29:05;6.20;99.90
6008;DHT22;3032;49.484;11.112;2022-11-20T17:31:32;5.90;99.90
6008;DHT22;3032;49.484;11.112;2022-11-20T17:33:58;5.70;99.90
6008;DHT22;3032;49.484;11.112;2022-11-20T17:36:27;5.20;99.90
6008;DHT22;3032;49.484;11.112;2022-11-20T17:38:53;5.00;99.90
6008;DHT22;3032;49.484;11.112;2022-11-20T17:41:20;5.10;99.90
6008;DHT22;3032;49.484;11.112;2022-11-20T17:43:47;5.20;99.90
6008;DHT22;3032;49.484;11.112;2022-11-20T17:46:22;5.10;99.90
6008;DHT22;3032;49.484;11.112;2022-11-20T17:48:48;4.80;99.90
6008;DHT22;3032;49.484;11.112;2022-11-20T17:51:18;4.60;99.90